sensor_id;sensor_type;location;lat;lon;timestamp;P1;durP1;ratioP1;P2;durP2;ratioP2
31594;SDS011;18200;48.726;8.892;2023-09-18T00:00:08;6.75;;;3.40;;
31594;SDS011;18200;48.726;8.892;2023-09-18T00:04:12;7.30;;;3.75;;
31594;SDS011;18200;48.726;8.892;2023-09-18T00:08:12;8.05;;;3.70;;
31594;SDS011;18200;48.726;8.892;2023-09-18T00:12:12;9.57;;;4.07;;
31594;SDS011;18200;48.726;8.892;2023-09-18T00:16:13;12.18;;;4.05;;
31594;SDS011;18200;48.726;8.892;2023-09-18T00:20:13;10.55;;;3.53;;
31594;SDS011;18200;48.726;8.892;2023-09-18T00:24:16;6.45;;;3.53;;
31594;SDS011;18200;48.726;8.892;2023-09-18T00:28:17;4.80;;;3.33;;
31594;SDS011;18200;48.726;8.892;2023-09-18T00:32:17;11.73;;;4.00;;
31594;SDS011;18200;48.726;8.892;2023-09-18T00:36:18;7.90;;;3.60;;
31594;SDS011;18200;48.726;8.892;2023-09-18T00:40:18;9.40;;;3.78;;
31594;SDS011;18200;48.726;8.892;2023-09-18T00:44:22;7.18;;;3.67;;
31594;SDS011;18200;48.726;8.892;2023-09-18T00:48:26;10.13;;;4.55;;
31594;SDS011;18200;48.726;8.892;2023-09-18T00:52:28;6.10;;;3.30;;
31594;SDS011;18200;48.726;8.892;2023-09-18T00:56:29;6.35;;;3.75;;
31594;SDS011;18200;48.726;8.892;2023-09-18T01:00:29;6.90;;;4.32;;
31594;SDS011;18200;48.726;8.892;2023-09-18T01:04:30;9.73;;;4.25;;
31594;SDS011;18200;48.726;8.892;2023-09-18T01:08:33;8.10;;;4.15;;
31594;SDS011;18200;48.726;8.892;2023-09-18T01:12:36;7.75;;;3.58;;
31594;SDS011;18200;48.726;8.892;2023-09-18T01:16:48;10.57;;;3.80;;
31594;SDS011;18200;48.726;8.892;2023-09-18T01:20:54;11.07;;;4.18;;
31594;SDS011;18200;48.726;8.892;2023-09-18T01:24:56;8.80;;;3.47;;
31594;SDS011;18200;48.726;8.892;2023-09-18T01:28:56;7.40;;;3.88;;
31594;SDS011;18200;48.726;8.892;2023-09-18T01:32:57;6.47;;;3.75;;
31594;SDS011;18200;48.726;8.892;2023-09-18T01:36:59;6.78;;;3.70;;
31594;SDS011;18200;48.726;8.892;2023-09-18T01:41:00;12.02;;;3.60;;
31594;SDS011;18200;48.726;8.892;2023-09-18T01:45:01;7.57;;;3.42;;
31594;SDS011;18200;48.726;8.892;2023-09-18T01:49:03;9.77;;;3.53;;
31594;SDS011;18200;48.726;8.892;2023-09-18T01:53:03;10.82;;;3.40;;
31594;SDS011;18200;48.726;8.892;2023-09-18T01:57:04;11.82;;;3.92;;
31594;SDS011;18200;48.726;8.892;2023-09-18T02:01:05;8.20;;;3.78;;
31594;SDS011;18200;48.726;8.892;2023-09-18T02:05:05;9.65;;;3.70;;
31594;SDS011;18200;48.726;8.892;2023-09-18T02:09:06;11.77;;;3.72;;
31594;SDS011;18200;48.726;8.892;2023-09-18T02:13:09;10.70;;;3.85;;
31594;SDS011;18200;48.726;8.892;2023-09-18T02:17:10;10.68;;;3.60;;
31594;SDS011;18200;48.726;8.892;2023-09-18T02:21:11;10.75;;;3.72;;
31594;SDS011;18200;48.726;8.892;2023-09-18T02:25:11;9.85;;;3.40;;
31594;SDS011;18200;48.726;8.892;2023-09-18T02:29:11;10.55;;;3.90;;
31594;SDS011;18200;48.726;8.892;2023-09-18T02:33:14;10.50;;;3.70;;
31594;SDS011;18200;48.726;8.892;2023-09-18T02:37:15;12.65;;;3.75;;
31594;SDS011;18200;48.726;8.892;2023-09-18T02:41:15;12.88;;;3.80;;
31594;SDS011;18200;48.726;8.892;2023-09-18T02:45:16;6.80;;;2.67;;
31594;SDS011;18200;48.726;8.892;2023-09-18T02:49:16;10.13;;;3.47;;
31594;SDS011;18200;48.726;8.892;2023-09-18T02:53:18;9.80;;;3.53;;
31594;SDS011;18200;48.726;8.892;2023-09-18T02:57:20;13.10;;;4.00;;
31594;SDS011;18200;48.726;8.892;2023-09-18T03:01:21;7.63;;;5.30;;
31594;SDS011;18200;48.726;8.892;2023-09-18T03:05:22;8.27;;;3.30;;
31594;SDS011;18200;48.726;8.892;2023-09-18T03:09:22;10.82;;;3.45;;
31594;SDS011;18200;48.726;8.892;2023-09-18T03:13:22;10.55;;;3.42;;
31594;SDS011;18200;48.726;8.892;2023-09-18T03:17:23;12.20;;;3.80;;
31594;SDS011;18200;48.726;8.892;2023-09-18T03:21:23;12.00;;;6.53;;
31594;SDS011;18200;48.726;8.892;2023-09-18T03:25:24;12.68;;;3.85;;
31594;SDS011;18200;48.726;8.892;2023-09-18T03:29:25;10.63;;;3.85;;
31594;SDS011;18200;48.726;8.892;2023-09-18T03:33:25;9.00;;;3.78;;
31594;SDS011;18200;48.726;8.892;2023-09-18T03:37:26;16.20;;;3.78;;
31594;SDS011;18200;48.726;8.892;2023-09-18T03:41:26;13.20;;;4.55;;
31594;SDS011;18200;48.726;8.892;2023-09-18T03:45:27;12.52;;;3.50;;
31594;SDS011;18200;48.726;8.892;2023-09-18T03:49:28;12.32;;;3.28;;
31594;SDS011;18200;48.726;8.892;2023-09-18T03:53:28;10.13;;;3.47;;
31594;SDS011;18200;48.726;8.892;2023-09-18T03:57:29;12.82;;;3.63;;
31594;SDS011;18200;48.726;8.892;2023-09-18T04:01:29;7.25;;;3.13;;
31594;SDS011;18200;48.726;8.892;2023-09-18T04:05:30;13.02;;;3.05;;
31594;SDS011;18200;48.726;8.892;2023-09-18T04:09:31;14.75;;;3.80;;
31594;SDS011;18200;48.726;8.892;2023-09-18T04:13:31;11.95;;;3.47;;
31594;SDS011;18200;48.726;8.892;2023-09-18T04:17:33;9.02;;;3.50;;
31594;SDS011;18200;48.726;8.892;2023-09-18T04:21:34;17.20;;;3.10;;
31594;SDS011;18200;48.726;8.892;2023-09-18T04:25:34;17.67;;;4.13;;
31594;SDS011;18200;48.726;8.892;2023-09-18T04:29:35;22.70;;;3.60;;
31594;SDS011;18200;48.726;8.892;2023-09-18T04:33:36;13.88;;;4.38;;
31594;SDS011;18200;48.726;8.892;2023-09-18T04:37:37;11.73;;;2.90;;
31594;SDS011;18200;48.726;8.892;2023-09-18T04:41:37;11.05;;;3.45;;
31594;SDS011;18200;48.726;8.892;2023-09-18T04:45:40;5.05;;;2.42;;
31594;SDS011;18200;48.726;8.892;2023-09-18T04:49:41;8.20;;;2.53;;
31594;SDS011;18200;48.726;8.892;2023-09-18T04:53:41;9.30;;;2.75;;
31594;SDS011;18200;48.726;8.892;2023-09-18T04:57:43;10.32;;;3.20;;
31594;SDS011;18200;48.726;8.892;2023-09-18T05:01:43;9.15;;;3.15;;
31594;SDS011;18200;48.726;8.892;2023-09-18T05:05:44;11.00;;;2.80;;
31594;SDS011;18200;48.726;8.892;2023-09-18T05:09:44;12.93;;;2.67;;
31594;SDS011;18200;48.726;8.892;2023-09-18T05:13:44;11.15;;;2.55;;
31594;SDS011;18200;48.726;8.892;2023-09-18T05:17:47;8.13;;;2.40;;
31594;SDS011;18200;48.726;8.892;2023-09-18T05:21:52;10.13;;;2.38;;
31594;SDS011;18200;48.726;8.892;2023-09-18T05:25:52;7.38;;;2.17;;
31594;SDS011;18200;48.726;8.892;2023-09-18T05:29:53;6.03;;;2.72;;
31594;SDS011;18200;48.726;8.892;2023-09-18T05:33:53;14.48;;;2.88;;
31594;SDS011;18200;48.726;8.892;2023-09-18T05:37:54;8.80;;;2.63;;
31594;SDS011;18200;48.726;8.892;2023-09-18T05:41:56;7.20;;;2.28;;
31594;SDS011;18200;48.726;8.892;2023-09-18T05:45:58;8.00;;;2.47;;
31594;SDS011;18200;48.726;8.892;2023-09-18T05:49:59;7.20;;;2.53;;
31594;SDS011;18200;48.726;8.892;2023-09-18T05:53:59;6.28;;;2.50;;
31594;SDS011;18200;48.726;8.892;2023-09-18T05:58:00;5.90;;;2.60;;
31594;SDS011;18200;48.726;8.892;2023-09-18T06:02:01;6.50;;;2.60;;
31594;SDS011;18200;48.726;8.892;2023-09-18T06:06:04;10.02;;;2.22;;
31594;SDS011;18200;48.726;8.892;2023-09-18T06:10:05;10.45;;;2.33;;
31594;SDS011;18200;48.726;8.892;2023-09-18T06:14:06;12.20;;;2.35;;
31594;SDS011;18200;48.726;8.892;2023-09-18T06:18:07;9.07;;;2.40;;
31594;SDS011;18200;48.726;8.892;2023-09-18T06:22:07;6.78;;;2.10;;
31594;SDS011;18200;48.726;8.892;2023-09-18T06:26:07;7.85;;;2.47;;
31594;SDS011;18200;48.726;8.892;2023-09-18T06:30:08;6.10;;;2.03;;
31594;SDS011;18200;48.726;8.892;2023-09-18T06:34:09;11.82;;;3.22;;
31594;SDS011;18200;48.726;8.892;2023-09-18T06:38:09;10.25;;;2.08;;
31594;SDS011;18200;48.726;8.892;2023-09-18T06:42:12;8.52;;;2.17;;
31594;SDS011;18200;48.726;8.892;2023-09-18T06:46:12;6.18;;;2.28;;
31594;SDS011;18200;48.726;8.892;2023-09-18T06:50:12;7.50;;;2.10;;
31594;SDS011;18200;48.726;8.892;2023-09-18T06:54:13;10.30;;;2.00;;
31594;SDS011;18200;48.726;8.892;2023-09-18T06:58:13;5.55;;;1.85;;
31594;SDS011;18200;48.726;8.892;2023-09-18T07:02:13;6.05;;;1.90;;
31594;SDS011;18200;48.726;8.892;2023-09-18T07:06:17;6.68;;;1.33;;
31594;SDS011;18200;48.726;8.892;2023-09-18T07:10:20;4.60;;;1.30;;
31594;SDS011;18200;48.726;8.892;2023-09-18T07:14:20;2.88;;;1.35;;
31594;SDS011;18200;48.726;8.892;2023-09-18T07:18:21;7.25;;;2.13;;
31594;SDS011;18200;48.726;8.892;2023-09-18T07:22:21;3.60;;;0.80;;
31594;SDS011;18200;48.726;8.892;2023-09-18T07:26:21;6.25;;;1.27;;
31594;SDS011;18200;48.726;8.892;2023-09-18T07:30:22;4.47;;;1.50;;
31594;SDS011;18200;48.726;8.892;2023-09-18T07:34:26;3.58;;;1.30;;
31594;SDS011;18200;48.726;8.892;2023-09-18T07:38:27;2.75;;;1.10;;
31594;SDS011;18200;48.726;8.892;2023-09-18T07:42:27;2.25;;;1.02;;
31594;SDS011;18200;48.726;8.892;2023-09-18T07:46:28;8.75;;;1.80;;
31594;SDS011;18200;48.726;8.892;2023-09-18T07:50:28;4.28;;;1.30;;
31594;SDS011;18200;48.726;8.892;2023-09-18T07:54:28;2.92;;;1.20;;
31594;SDS011;18200;48.726;8.892;2023-09-18T07:58:29;4.97;;;1.05;;
31594;SDS011;18200;48.726;8.892;2023-09-18T08:02:29;4.47;;;1.13;;
31594;SDS011;18200;48.726;8.892;2023-09-18T08:06:31;3.80;;;1.45;;
31594;SDS011;18200;48.726;8.892;2023-09-18T08:10:32;2.97;;;1.13;;
31594;SDS011;18200;48.726;8.892;2023-09-18T08:14:37;7.32;;;1.10;;
31594;SDS011;18200;48.726;8.892;2023-09-18T08:18:37;6.78;;;1.45;;
31594;SDS011;18200;48.726;8.892;2023-09-18T08:22:41;6.05;;;1.20;;
31594;SDS011;18200;48.726;8.892;2023-09-18T08:26:43;6.13;;;1.23;;
31594;SDS011;18200;48.726;8.892;2023-09-18T08:30:43;10.45;;;1.33;;
31594;SDS011;18200;48.726;8.892;2023-09-18T08:34:47;4.30;;;0.90;;
31594;SDS011;18200;48.726;8.892;2023-09-18T08:38:47;5.90;;;1.40;;
31594;SDS011;18200;48.726;8.892;2023-09-18T08:42:48;4.82;;;1.17;;
31594;SDS011;18200;48.726;8.892;2023-09-18T08:46:51;3.27;;;1.10;;
31594;SDS011;18200;48.726;8.892;2023-09-18T08:50:51;8.85;;;1.50;;
31594;SDS011;18200;48.726;8.892;2023-09-18T08:54:52;2.83;;;1.10;;
31594;SDS011;18200;48.726;8.892;2023-09-18T08:58:54;7.30;;;1.50;;
31594;SDS011;18200;48.726;8.892;2023-09-18T09:02:56;6.97;;;1.40;;
31594;SDS011;18200;48.726;8.892;2023-09-18T09:06:57;5.07;;;1.60;;
31594;SDS011;18200;48.726;8.892;2023-09-18T09:10:59;6.30;;;1.38;;
31594;SDS011;18200;48.726;8.892;2023-09-18T09:15:03;5.43;;;1.33;;
31594;SDS011;18200;48.726;8.892;2023-09-18T09:23:05;5.78;;;1.20;;
31594;SDS011;18200;48.726;8.892;2023-09-18T09:27:07;3.78;;;1.88;;
31594;SDS011;18200;48.726;8.892;2023-09-18T09:31:08;5.10;;;1.45;;
31594;SDS011;18200;48.726;8.892;2023-09-18T09:35:10;5.43;;;1.70;;
31594;SDS011;18200;48.726;8.892;2023-09-18T09:39:11;4.70;;;1.50;;
31594;SDS011;18200;48.726;8.892;2023-09-18T09:43:14;5.43;;;1.23;;
31594;SDS011;18200;48.726;8.892;2023-09-18T09:47:15;4.78;;;1.30;;
31594;SDS011;18200;48.726;8.892;2023-09-18T09:51:17;3.20;;;1.27;;
31594;SDS011;18200;48.726;8.892;2023-09-18T09:55:30;7.82;;;1.73;;
31594;SDS011;18200;48.726;8.892;2023-09-18T09:59:33;2.58;;;1.70;;
31594;SDS011;18200;48.726;8.892;2023-09-18T10:03:35;4.50;;;1.42;;
31594;SDS011;18200;48.726;8.892;2023-09-18T10:07:38;8.30;;;1.88;;
31594;SDS011;18200;48.726;8.892;2023-09-18T10:11:40;3.63;;;1.00;;
31594;SDS011;18200;48.726;8.892;2023-09-18T10:15:44;3.30;;;1.70;;
31594;SDS011;18200;48.726;8.892;2023-09-18T10:19:49;5.85;;;1.60;;
31594;SDS011;18200;48.726;8.892;2023-09-18T10:28:30;4.00;;;1.67;;
31594;SDS011;18200;48.726;8.892;2023-09-18T10:32:32;5.28;;;1.63;;
31594;SDS011;18200;48.726;8.892;2023-09-18T10:36:34;12.82;;;1.98;;
31594;SDS011;18200;48.726;8.892;2023-09-18T10:40:37;13.85;;;1.95;;
31594;SDS011;18200;48.726;8.892;2023-09-18T10:44:40;4.28;;;1.45;;
31594;SDS011;18200;48.726;8.892;2023-09-18T10:48:42;8.05;;;1.70;;
31594;SDS011;18200;48.726;8.892;2023-09-18T10:52:44;8.05;;;1.77;;
31594;SDS011;18200;48.726;8.892;2023-09-18T10:56:46;4.53;;;1.45;;
31594;SDS011;18200;48.726;8.892;2023-09-18T11:00:47;5.88;;;1.98;;
31594;SDS011;18200;48.726;8.892;2023-09-18T11:04:52;6.88;;;1.85;;
31594;SDS011;18200;48.726;8.892;2023-09-18T11:09:02;7.25;;;2.05;;
31594;SDS011;18200;48.726;8.892;2023-09-18T11:13:06;5.70;;;1.73;;
31594;SDS011;18200;48.726;8.892;2023-09-18T11:17:27;7.03;;;1.90;;
31594;SDS011;18200;48.726;8.892;2023-09-18T11:21:29;7.72;;;1.88;;
31594;SDS011;18200;48.726;8.892;2023-09-18T11:25:35;8.38;;;1.70;;
31594;SDS011;18200;48.726;8.892;2023-09-18T11:29:41;6.28;;;1.77;;
31594;SDS011;18200;48.726;8.892;2023-09-18T11:33:42;6.75;;;1.90;;
31594;SDS011;18200;48.726;8.892;2023-09-18T11:37:46;6.85;;;2.08;;
31594;SDS011;18200;48.726;8.892;2023-09-18T11:41:47;5.05;;;1.80;;
31594;SDS011;18200;48.726;8.892;2023-09-18T11:45:54;5.47;;;1.65;;
31594;SDS011;18200;48.726;8.892;2023-09-18T11:49:56;4.15;;;1.55;;
31594;SDS011;18200;48.726;8.892;2023-09-18T11:53:58;3.83;;;1.70;;
31594;SDS011;18200;48.726;8.892;2023-09-18T11:58:01;7.95;;;2.25;;
31594;SDS011;18200;48.726;8.892;2023-09-18T12:02:04;5.57;;;1.70;;
31594;SDS011;18200;48.726;8.892;2023-09-18T12:06:06;3.85;;;1.33;;
31594;SDS011;18200;48.726;8.892;2023-09-18T12:10:09;5.60;;;1.67;;
31594;SDS011;18200;48.726;8.892;2023-09-18T12:14:10;5.68;;;1.80;;
31594;SDS011;18200;48.726;8.892;2023-09-18T12:18:11;2.92;;;1.33;;
31594;SDS011;18200;48.726;8.892;2023-09-18T12:22:22;8.75;;;1.35;;
31594;SDS011;18200;48.726;8.892;2023-09-18T12:26:26;3.30;;;1.40;;
31594;SDS011;18200;48.726;8.892;2023-09-18T12:30:27;6.47;;;1.58;;
31594;SDS011;18200;48.726;8.892;2023-09-18T12:34:27;4.68;;;1.50;;
31594;SDS011;18200;48.726;8.892;2023-09-18T12:38:28;1.90;;;1.27;;
31594;SDS011;18200;48.726;8.892;2023-09-18T12:42:30;3.03;;;1.33;;
31594;SDS011;18200;48.726;8.892;2023-09-18T12:46:31;3.95;;;1.55;;
31594;SDS011;18200;48.726;8.892;2023-09-18T12:50:32;4.25;;;1.27;;
31594;SDS011;18200;48.726;8.892;2023-09-18T12:54:41;4.85;;;1.40;;
31594;SDS011;18200;48.726;8.892;2023-09-18T12:58:42;2.97;;;1.30;;
31594;SDS011;18200;48.726;8.892;2023-09-18T13:02:44;4.78;;;1.55;;
31594;SDS011;18200;48.726;8.892;2023-09-18T13:06:44;3.00;;;1.08;;
31594;SDS011;18200;48.726;8.892;2023-09-18T13:10:45;4.47;;;1.52;;
31594;SDS011;18200;48.726;8.892;2023-09-18T13:14:59;7.07;;;1.90;;
31594;SDS011;18200;48.726;8.892;2023-09-18T13:19:04;3.50;;;1.30;;
31594;SDS011;18200;48.726;8.892;2023-09-18T13:23:05;5.60;;;1.77;;
31594;SDS011;18200;48.726;8.892;2023-09-18T13:27:05;2.28;;;1.17;;
31594;SDS011;18200;48.726;8.892;2023-09-18T13:31:06;3.28;;;1.50;;
31594;SDS011;18200;48.726;8.892;2023-09-18T13:35:07;6.25;;;1.65;;
31594;SDS011;18200;48.726;8.892;2023-09-18T13:39:07;4.15;;;1.40;;
31594;SDS011;18200;48.726;8.892;2023-09-18T13:43:08;4.05;;;1.38;;
31594;SDS011;18200;48.726;8.892;2023-09-18T13:47:09;2.28;;;1.25;;
31594;SDS011;18200;48.726;8.892;2023-09-18T13:51:10;2.55;;;1.33;;
31594;SDS011;18200;48.726;8.892;2023-09-18T13:55:10;3.15;;;1.40;;
31594;SDS011;18200;48.726;8.892;2023-09-18T13:59:11;2.15;;;1.35;;
31594;SDS011;18200;48.726;8.892;2023-09-18T14:03:11;5.70;;;1.77;;
31594;SDS011;18200;48.726;8.892;2023-09-18T14:07:15;3.03;;;1.13;;
31594;SDS011;18200;48.726;8.892;2023-09-18T14:11:16;3.80;;;1.27;;
31594;SDS011;18200;48.726;8.892;2023-09-18T14:15:18;2.47;;;1.40;;
31594;SDS011;18200;48.726;8.892;2023-09-18T14:19:19;2.47;;;1.13;;
31594;SDS011;18200;48.726;8.892;2023-09-18T14:23:19;1.77;;;1.05;;
31594;SDS011;18200;48.726;8.892;2023-09-18T14:27:20;2.10;;;1.40;;
31594;SDS011;18200;48.726;8.892;2023-09-18T14:31:20;2.50;;;1.15;;
31594;SDS011;18200;48.726;8.892;2023-09-18T14:35:21;3.08;;;1.10;;
31594;SDS011;18200;48.726;8.892;2023-09-18T14:39:23;3.67;;;1.10;;
31594;SDS011;18200;48.726;8.892;2023-09-18T14:43:23;3.67;;;1.00;;
31594;SDS011;18200;48.726;8.892;2023-09-18T14:47:25;2.05;;;1.10;;
31594;SDS011;18200;48.726;8.892;2023-09-18T14:51:25;4.47;;;1.70;;
31594;SDS011;18200;48.726;8.892;2023-09-18T14:55:25;2.90;;;1.35;;
31594;SDS011;18200;48.726;8.892;2023-09-18T14:59:26;3.03;;;1.05;;
31594;SDS011;18200;48.726;8.892;2023-09-18T15:03:26;4.32;;;1.17;;
31594;SDS011;18200;48.726;8.892;2023-09-18T15:07:26;4.50;;;1.20;;
31594;SDS011;18200;48.726;8.892;2023-09-18T15:11:27;3.45;;;1.20;;
31594;SDS011;18200;48.726;8.892;2023-09-18T15:15:27;4.82;;;1.20;;
31594;SDS011;18200;48.726;8.892;2023-09-18T15:19:28;3.42;;;1.00;;
31594;SDS011;18200;48.726;8.892;2023-09-18T15:23:28;3.97;;;1.40;;
31594;SDS011;18200;48.726;8.892;2023-09-18T15:27:30;2.80;;;1.23;;
31594;SDS011;18200;48.726;8.892;2023-09-18T15:31:30;6.32;;;1.50;;
31594;SDS011;18200;48.726;8.892;2023-09-18T15:35:30;3.45;;;1.58;;
31594;SDS011;18200;48.726;8.892;2023-09-18T15:39:32;3.63;;;1.20;;
31594;SDS011;18200;48.726;8.892;2023-09-18T15:43:35;2.53;;;1.23;;
31594;SDS011;18200;48.726;8.892;2023-09-18T15:47:40;2.67;;;1.30;;
31594;SDS011;18200;48.726;8.892;2023-09-18T15:51:42;3.97;;;1.13;;
31594;SDS011;18200;48.726;8.892;2023-09-18T15:55:42;2.70;;;1.13;;
31594;SDS011;18200;48.726;8.892;2023-09-18T15:59:43;5.65;;;1.80;;
31594;SDS011;18200;48.726;8.892;2023-09-18T16:03:43;10.48;;;2.22;;
31594;SDS011;18200;48.726;8.892;2023-09-18T16:07:46;4.90;;;1.35;;
31594;SDS011;18200;48.726;8.892;2023-09-18T16:11:47;8.90;;;1.77;;
31594;SDS011;18200;48.726;8.892;2023-09-18T16:15:47;4.25;;;1.50;;
31594;SDS011;18200;48.726;8.892;2023-09-18T16:19:48;4.85;;;1.83;;
31594;SDS011;18200;48.726;8.892;2023-09-18T16:23:48;3.60;;;1.05;;
31594;SDS011;18200;48.726;8.892;2023-09-18T16:27:49;4.15;;;1.40;;
31594;SDS011;18200;48.726;8.892;2023-09-18T16:31:50;3.03;;;1.27;;
31594;SDS011;18200;48.726;8.892;2023-09-18T16:35:51;2.95;;;1.38;;
31594;SDS011;18200;48.726;8.892;2023-09-18T16:39:52;3.40;;;1.38;;
31594;SDS011;18200;48.726;8.892;2023-09-18T16:43:52;3.13;;;1.25;;
31594;SDS011;18200;48.726;8.892;2023-09-18T16:47:53;3.60;;;1.48;;
31594;SDS011;18200;48.726;8.892;2023-09-18T16:51:53;3.70;;;1.38;;
31594;SDS011;18200;48.726;8.892;2023-09-18T16:55:53;6.70;;;2.00;;
31594;SDS011;18200;48.726;8.892;2023-09-18T16:59:54;7.97;;;3.88;;
31594;SDS011;18200;48.726;8.892;2023-09-18T17:03:54;6.38;;;2.55;;
31594;SDS011;18200;48.726;8.892;2023-09-18T17:07:55;2.72;;;1.50;;
31594;SDS011;18200;48.726;8.892;2023-09-18T17:11:55;3.70;;;1.50;;
31594;SDS011;18200;48.726;8.892;2023-09-18T17:15:55;3.45;;;1.33;;
31594;SDS011;18200;48.726;8.892;2023-09-18T17:19:56;2.08;;;1.50;;
31594;SDS011;18200;48.726;8.892;2023-09-18T17:23:57;2.15;;;1.15;;
31594;SDS011;18200;48.726;8.892;2023-09-18T17:27:58;2.47;;;1.35;;
31594;SDS011;18200;48.726;8.892;2023-09-18T17:31:59;3.20;;;1.30;;
31594;SDS011;18200;48.726;8.892;2023-09-18T17:35:59;3.88;;;1.27;;
31594;SDS011;18200;48.726;8.892;2023-09-18T17:40:00;2.95;;;1.35;;
31594;SDS011;18200;48.726;8.892;2023-09-18T17:44:01;3.95;;;1.65;;
31594;SDS011;18200;48.726;8.892;2023-09-18T17:48:02;3.22;;;1.52;;
31594;SDS011;18200;48.726;8.892;2023-09-18T17:52:06;4.03;;;1.50;;
31594;SDS011;18200;48.726;8.892;2023-09-18T17:56:09;2.60;;;1.42;;
31594;SDS011;18200;48.726;8.892;2023-09-18T18:00:09;3.45;;;1.40;;
31594;SDS011;18200;48.726;8.892;2023-09-18T18:04:12;4.13;;;1.70;;
31594;SDS011;18200;48.726;8.892;2023-09-18T18:08:12;2.80;;;1.63;;
31594;SDS011;18200;48.726;8.892;2023-09-18T18:12:13;5.07;;;1.70;;
31594;SDS011;18200;48.726;8.892;2023-09-18T18:16:13;3.72;;;1.83;;
31594;SDS011;18200;48.726;8.892;2023-09-18T18:20:14;3.97;;;1.60;;
31594;SDS011;18200;48.726;8.892;2023-09-18T18:24:16;6.63;;;1.90;;
31594;SDS011;18200;48.726;8.892;2023-09-18T18:28:17;5.88;;;1.40;;
31594;SDS011;18200;48.726;8.892;2023-09-18T18:32:17;6.43;;;3.83;;
31594;SDS011;18200;48.726;8.892;2023-09-18T18:36:17;4.57;;;2.08;;
31594;SDS011;18200;48.726;8.892;2023-09-18T18:40:19;4.25;;;1.50;;
31594;SDS011;18200;48.726;8.892;2023-09-18T18:44:22;3.28;;;1.50;;
31594;SDS011;18200;48.726;8.892;2023-09-18T18:48:23;3.60;;;1.63;;
31594;SDS011;18200;48.726;8.892;2023-09-18T18:52:25;3.15;;;0.88;;
31594;SDS011;18200;48.726;8.892;2023-09-18T18:56:26;2.88;;;1.23;;
31594;SDS011;18200;48.726;8.892;2023-09-18T19:00:26;3.25;;;1.17;;
31594;SDS011;18200;48.726;8.892;2023-09-18T19:04:26;3.38;;;1.30;;
31594;SDS011;18200;48.726;8.892;2023-09-18T19:08:27;2.45;;;1.05;;
31594;SDS011;18200;48.726;8.892;2023-09-18T19:12:28;3.03;;;1.05;;
31594;SDS011;18200;48.726;8.892;2023-09-18T19:16:29;1.85;;;1.00;;
31594;SDS011;18200;48.726;8.892;2023-09-18T19:20:31;1.90;;;1.13;;
31594;SDS011;18200;48.726;8.892;2023-09-18T19:24:31;2.15;;;1.00;;
31594;SDS011;18200;48.726;8.892;2023-09-18T19:28:32;4.72;;;1.27;;
31594;SDS011;18200;48.726;8.892;2023-09-18T19:32:39;1.33;;;1.17;;
31594;SDS011;18200;48.726;8.892;2023-09-18T19:36:39;3.20;;;1.13;;
31594;SDS011;18200;48.726;8.892;2023-09-18T19:40:41;3.00;;;1.00;;
31594;SDS011;18200;48.726;8.892;2023-09-18T19:44:43;1.92;;;1.00;;
31594;SDS011;18200;48.726;8.892;2023-09-18T19:48:44;3.90;;;1.05;;
31594;SDS011;18200;48.726;8.892;2023-09-18T19:52:45;1.38;;;0.60;;
31594;SDS011;18200;48.726;8.892;2023-09-18T19:56:45;4.65;;;0.90;;
31594;SDS011;18200;48.726;8.892;2023-09-18T20:00:46;2.17;;;0.60;;
31594;SDS011;18200;48.726;8.892;2023-09-18T20:04:46;1.50;;;0.70;;
31594;SDS011;18200;48.726;8.892;2023-09-18T20:08:47;1.85;;;0.82;;
31594;SDS011;18200;48.726;8.892;2023-09-18T20:12:48;2.97;;;0.70;;
31594;SDS011;18200;48.726;8.892;2023-09-18T20:16:49;1.45;;;0.50;;
31594;SDS011;18200;48.726;8.892;2023-09-18T20:20:52;0.90;;;0.60;;
31594;SDS011;18200;48.726;8.892;2023-09-18T20:24:59;1.73;;;0.80;;
31594;SDS011;18200;48.726;8.892;2023-09-18T20:29:00;2.08;;;0.70;;
31594;SDS011;18200;48.726;8.892;2023-09-18T20:33:00;2.05;;;0.70;;
31594;SDS011;18200;48.726;8.892;2023-09-18T20:37:04;3.22;;;0.77;;
31594;SDS011;18200;48.726;8.892;2023-09-18T20:41:05;2.17;;;0.80;;
31594;SDS011;18200;48.726;8.892;2023-09-18T20:45:05;0.88;;;0.70;;
31594;SDS011;18200;48.726;8.892;2023-09-18T20:49:06;1.55;;;0.80;;
31594;SDS011;18200;48.726;8.892;2023-09-18T20:53:07;2.00;;;0.88;;
31594;SDS011;18200;48.726;8.892;2023-09-18T20:57:09;4.78;;;0.82;;
31594;SDS011;18200;48.726;8.892;2023-09-18T21:01:09;3.15;;;0.95;;
31594;SDS011;18200;48.726;8.892;2023-09-18T21:05:13;2.03;;;0.60;;
31594;SDS011;18200;48.726;8.892;2023-09-18T21:09:16;2.80;;;0.95;;
31594;SDS011;18200;48.726;8.892;2023-09-18T21:13:16;1.20;;;0.70;;
31594;SDS011;18200;48.726;8.892;2023-09-18T21:17:17;1.95;;;0.68;;
31594;SDS011;18200;48.726;8.892;2023-09-18T21:21:17;0.85;;;0.65;;
31594;SDS011;18200;48.726;8.892;2023-09-18T21:25:18;2.05;;;0.77;;
31594;SDS011;18200;48.726;8.892;2023-09-18T21:29:18;1.55;;;0.82;;
31594;SDS011;18200;48.726;8.892;2023-09-18T21:33:22;3.28;;;1.02;;
31594;SDS011;18200;48.726;8.892;2023-09-18T21:37:22;1.20;;;0.68;;
31594;SDS011;18200;48.726;8.892;2023-09-18T21:41:23;0.82;;;0.55;;
31594;SDS011;18200;48.726;8.892;2023-09-18T21:45:23;1.42;;;0.65;;
31594;SDS011;18200;48.726;8.892;2023-09-18T21:49:23;1.88;;;0.60;;
31594;SDS011;18200;48.726;8.892;2023-09-18T21:53:24;1.73;;;0.80;;
31594;SDS011;18200;48.726;8.892;2023-09-18T21:57:24;1.38;;;0.65;;
31594;SDS011;18200;48.726;8.892;2023-09-18T22:01:24;0.93;;;0.68;;
31594;SDS011;18200;48.726;8.892;2023-09-18T22:05:25;1.48;;;1.10;;
31594;SDS011;18200;48.726;8.892;2023-09-18T22:09:26;2.60;;;0.70;;
31594;SDS011;18200;48.726;8.892;2023-09-18T22:13:26;1.30;;;0.60;;
31594;SDS011;18200;48.726;8.892;2023-09-18T22:17:28;1.17;;;0.70;;
31594;SDS011;18200;48.726;8.892;2023-09-18T22:21:29;4.10;;;1.00;;
31594;SDS011;18200;48.726;8.892;2023-09-18T22:25:30;3.10;;;0.82;;
31594;SDS011;18200;48.726;8.892;2023-09-18T22:29:38;2.35;;;1.08;;
31594;SDS011;18200;48.726;8.892;2023-09-18T22:33:39;2.42;;;0.57;;
31594;SDS011;18200;48.726;8.892;2023-09-18T22:37:41;1.50;;;0.70;;
31594;SDS011;18200;48.726;8.892;2023-09-18T22:54:59;3.13;;;1.02;;
31594;SDS011;18200;48.726;8.892;2023-09-18T22:59:00;2.45;;;1.30;;
31594;SDS011;18200;48.726;8.892;2023-09-18T23:03:02;1.67;;;0.82;;
31594;SDS011;18200;48.726;8.892;2023-09-18T23:07:04;1.30;;;0.98;;
31594;SDS011;18200;48.726;8.892;2023-09-18T23:11:05;2.60;;;1.10;;
31594;SDS011;18200;48.726;8.892;2023-09-18T23:15:06;2.15;;;0.93;;
31594;SDS011;18200;48.726;8.892;2023-09-18T23:19:08;4.18;;;1.00;;
31594;SDS011;18200;48.726;8.892;2023-09-18T23:23:08;5.32;;;1.10;;
31594;SDS011;18200;48.726;8.892;2023-09-18T23:27:11;3.05;;;1.05;;
31594;SDS011;18200;48.726;8.892;2023-09-18T23:31:12;1.50;;;0.90;;
31594;SDS011;18200;48.726;8.892;2023-09-18T23:35:13;2.22;;;1.00;;
31594;SDS011;18200;48.726;8.892;2023-09-18T23:39:17;1.27;;;0.80;;
31594;SDS011;18200;48.726;8.892;2023-09-18T23:43:19;2.85;;;1.30;;
31594;SDS011;18200;48.726;8.892;2023-09-18T23:47:20;2.67;;;1.02;;
31594;SDS011;18200;48.726;8.892;2023-09-18T23:51:21;3.10;;;1.23;;
31594;SDS011;18200;48.726;8.892;2023-09-18T23:55:22;4.45;;;1.40;;
31594;SDS011;18200;48.726;8.892;2023-09-18T23:59:22;1.60;;;0.90;;
